sensor_id;sensor_type;location;lat;lon;timestamp;P1;durP1;ratioP1;P2;durP2;ratioP2
31836;SDS011;18401;49.344;6.240;2024-03-02T00:00:14;1.98;;;1.02;;
31836;SDS011;18401;49.344;6.240;2024-03-02T00:02:40;2.33;;;1.00;;
31836;SDS011;18401;49.344;6.240;2024-03-02T00:05:10;2.08;;;1.20;;
31836;SDS011;18401;49.344;6.240;2024-03-02T00:07:37;1.00;;;0.85;;
31836;SDS011;18401;49.344;6.240;2024-03-02T00:10:27;2.72;;;0.90;;
31836;SDS011;18401;49.344;6.240;2024-03-02T00:13:05;2.40;;;0.90;;
31836;SDS011;18401;49.344;6.240;2024-03-02T00:18:12;2.53;;;1.02;;
31836;SDS011;18401;49.344;6.240;2024-03-02T00:20:39;1.52;;;0.93;;
31836;SDS011;18401;49.344;6.240;2024-03-02T00:23:06;2.58;;;1.00;;
31836;SDS011;18401;49.344;6.240;2024-03-02T00:31:02;6.90;;;1.00;;
31836;SDS011;18401;49.344;6.240;2024-03-02T00:33:42;1.15;;;1.00;;
31836;SDS011;18401;49.344;6.240;2024-03-02T00:36:10;2.22;;;1.10;;
31836;SDS011;18401;49.344;6.240;2024-03-02T00:38:47;2.15;;;0.88;;
31836;SDS011;18401;49.344;6.240;2024-03-02T00:41:32;1.33;;;0.85;;
31836;SDS011;18401;49.344;6.240;2024-03-02T00:44:04;1.23;;;1.08;;
31836;SDS011;18401;49.344;6.240;2024-03-02T00:49:01;0.90;;;0.90;;
31836;SDS011;18401;49.344;6.240;2024-03-02T00:51:29;1.88;;;1.00;;
31836;SDS011;18401;49.344;6.240;2024-03-02T00:53:57;2.88;;;1.25;;
31836;SDS011;18401;49.344;6.240;2024-03-02T00:56:24;13.85;;;1.08;;
31836;SDS011;18401;49.344;6.240;2024-03-02T00:58:51;2.22;;;1.05;;
31836;SDS011;18401;49.344;6.240;2024-03-02T01:01:17;3.80;;;1.30;;
31836;SDS011;18401;49.344;6.240;2024-03-02T01:03:44;4.88;;;1.05;;
31836;SDS011;18401;49.344;6.240;2024-03-02T01:06:11;1.33;;;0.90;;
31836;SDS011;18401;49.344;6.240;2024-03-02T01:08:37;2.17;;;1.02;;
31836;SDS011;18401;49.344;6.240;2024-03-02T01:11:03;1.33;;;1.00;;
31836;SDS011;18401;49.344;6.240;2024-03-02T01:13:29;3.58;;;1.40;;
31836;SDS011;18401;49.344;6.240;2024-03-02T01:15:56;2.20;;;0.88;;
31836;SDS011;18401;49.344;6.240;2024-03-02T01:18:22;2.03;;;1.00;;
31836;SDS011;18401;49.344;6.240;2024-03-02T01:20:48;1.88;;;1.00;;
31836;SDS011;18401;49.344;6.240;2024-03-02T01:23:16;1.80;;;1.10;;
31836;SDS011;18401;49.344;6.240;2024-03-02T01:25:46;3.35;;;1.00;;
31836;SDS011;18401;49.344;6.240;2024-03-02T01:28:15;2.53;;;1.00;;
31836;SDS011;18401;49.344;6.240;2024-03-02T01:30:41;4.82;;;1.27;;
31836;SDS011;18401;49.344;6.240;2024-03-02T01:33:06;0.90;;;0.90;;
31836;SDS011;18401;49.344;6.240;2024-03-02T01:35:32;2.10;;;1.13;;
31836;SDS011;18401;49.344;6.240;2024-03-02T01:37:59;3.58;;;1.08;;
31836;SDS011;18401;49.344;6.240;2024-03-02T01:40:25;0.90;;;0.90;;
31836;SDS011;18401;49.344;6.240;2024-03-02T01:42:51;3.05;;;1.08;;
31836;SDS011;18401;49.344;6.240;2024-03-02T01:45:20;4.43;;;1.05;;
31836;SDS011;18401;49.344;6.240;2024-03-02T01:47:46;2.20;;;1.05;;
31836;SDS011;18401;49.344;6.240;2024-03-02T01:50:12;3.40;;;1.20;;
31836;SDS011;18401;49.344;6.240;2024-03-02T01:52:38;0.90;;;0.90;;
31836;SDS011;18401;49.344;6.240;2024-03-02T01:55:04;4.40;;;1.10;;
31836;SDS011;18401;49.344;6.240;2024-03-02T01:57:31;3.58;;;1.08;;
31836;SDS011;18401;49.344;6.240;2024-03-02T01:59:57;4.88;;;1.40;;
31836;SDS011;18401;49.344;6.240;2024-03-02T02:02:23;1.25;;;1.10;;
31836;SDS011;18401;49.344;6.240;2024-03-02T02:04:49;2.20;;;1.38;;
31836;SDS011;18401;49.344;6.240;2024-03-02T02:07:14;2.75;;;1.33;;
31836;SDS011;18401;49.344;6.240;2024-03-02T02:09:43;2.58;;;1.20;;
31836;SDS011;18401;49.344;6.240;2024-03-02T02:12:09;2.97;;;1.83;;
31836;SDS011;18401;49.344;6.240;2024-03-02T02:14:35;1.85;;;1.20;;
31836;SDS011;18401;49.344;6.240;2024-03-02T02:17:01;3.95;;;1.00;;
31836;SDS011;18401;49.344;6.240;2024-03-02T02:19:27;3.00;;;1.20;;
31836;SDS011;18401;49.344;6.240;2024-03-02T02:21:52;2.80;;;1.27;;
31836;SDS011;18401;49.344;6.240;2024-03-02T02:24:18;2.25;;;1.40;;
31836;SDS011;18401;49.344;6.240;2024-03-02T02:26:43;1.75;;;1.40;;
31836;SDS011;18401;49.344;6.240;2024-03-02T02:29:09;5.30;;;1.35;;
31836;SDS011;18401;49.344;6.240;2024-03-02T02:31:38;2.30;;;1.17;;
31836;SDS011;18401;49.344;6.240;2024-03-02T02:34:05;1.73;;;1.35;;
31836;SDS011;18401;49.344;6.240;2024-03-02T02:36:33;1.30;;;1.20;;
31836;SDS011;18401;49.344;6.240;2024-03-02T02:39:02;1.20;;;1.10;;
31836;SDS011;18401;49.344;6.240;2024-03-02T02:41:32;1.60;;;1.17;;
31836;SDS011;18401;49.344;6.240;2024-03-02T02:43:58;3.03;;;1.50;;
31836;SDS011;18401;49.344;6.240;2024-03-02T02:46:23;2.30;;;1.55;;
31836;SDS011;18401;49.344;6.240;2024-03-02T02:48:49;1.35;;;1.15;;
31836;SDS011;18401;49.344;6.240;2024-03-02T02:51:16;2.70;;;1.50;;
31836;SDS011;18401;49.344;6.240;2024-03-02T02:53:42;1.52;;;1.38;;
31836;SDS011;18401;49.344;6.240;2024-03-02T02:56:08;1.30;;;1.20;;
31836;SDS011;18401;49.344;6.240;2024-03-02T02:58:34;5.25;;;1.50;;
31836;SDS011;18401;49.344;6.240;2024-03-02T03:01:00;4.13;;;1.60;;
31836;SDS011;18401;49.344;6.240;2024-03-02T03:03:26;3.50;;;1.95;;
31836;SDS011;18401;49.344;6.240;2024-03-02T03:05:52;3.60;;;1.40;;
31836;SDS011;18401;49.344;6.240;2024-03-02T03:08:18;2.65;;;1.52;;
31836;SDS011;18401;49.344;6.240;2024-03-02T03:10:43;4.30;;;1.83;;
31836;SDS011;18401;49.344;6.240;2024-03-02T03:13:09;2.00;;;1.40;;
31836;SDS011;18401;49.344;6.240;2024-03-02T03:15:35;5.07;;;1.58;;
31836;SDS011;18401;49.344;6.240;2024-03-02T03:18:01;6.47;;;1.52;;
31836;SDS011;18401;49.344;6.240;2024-03-02T03:20:28;2.38;;;1.35;;
31836;SDS011;18401;49.344;6.240;2024-03-02T03:22:55;3.38;;;1.38;;
31836;SDS011;18401;49.344;6.240;2024-03-02T03:25:21;4.82;;;1.40;;
31836;SDS011;18401;49.344;6.240;2024-03-02T03:27:46;1.70;;;1.40;;
31836;SDS011;18401;49.344;6.240;2024-03-02T03:30:12;3.88;;;1.40;;
31836;SDS011;18401;49.344;6.240;2024-03-02T03:32:38;2.08;;;1.50;;
31836;SDS011;18401;49.344;6.240;2024-03-02T03:35:04;3.53;;;1.50;;
31836;SDS011;18401;49.344;6.240;2024-03-02T03:37:30;6.35;;;1.55;;
31836;SDS011;18401;49.344;6.240;2024-03-02T03:39:59;3.40;;;1.38;;
31836;SDS011;18401;49.344;6.240;2024-03-02T03:42:26;4.50;;;1.40;;
31836;SDS011;18401;49.344;6.240;2024-03-02T03:44:51;1.98;;;1.33;;
31836;SDS011;18401;49.344;6.240;2024-03-02T03:47:17;5.35;;;1.38;;
31836;SDS011;18401;49.344;6.240;2024-03-02T03:49:43;3.67;;;1.33;;
31836;SDS011;18401;49.344;6.240;2024-03-02T03:52:09;4.32;;;1.42;;
31836;SDS011;18401;49.344;6.240;2024-03-02T03:54:34;3.42;;;1.00;;
31836;SDS011;18401;49.344;6.240;2024-03-02T03:57:02;1.38;;;1.10;;
31836;SDS011;18401;49.344;6.240;2024-03-02T03:59:28;1.15;;;1.05;;
31836;SDS011;18401;49.344;6.240;2024-03-02T04:01:53;3.10;;;1.10;;
31836;SDS011;18401;49.344;6.240;2024-03-02T04:04:19;1.05;;;1.00;;
31836;SDS011;18401;49.344;6.240;2024-03-02T04:06:44;2.13;;;0.98;;
31836;SDS011;18401;49.344;6.240;2024-03-02T04:09:10;5.25;;;1.30;;
31836;SDS011;18401;49.344;6.240;2024-03-02T04:11:36;1.63;;;0.93;;
31836;SDS011;18401;49.344;6.240;2024-03-02T04:14:02;4.40;;;1.30;;
31836;SDS011;18401;49.344;6.240;2024-03-02T04:16:27;3.22;;;1.20;;
31836;SDS011;18401;49.344;6.240;2024-03-02T04:18:53;3.35;;;1.63;;
31836;SDS011;18401;49.344;6.240;2024-03-02T04:21:19;2.13;;;1.45;;
31836;SDS011;18401;49.344;6.240;2024-03-02T04:23:45;1.25;;;1.00;;
31836;SDS011;18401;49.344;6.240;2024-03-02T04:26:11;4.53;;;1.20;;
31836;SDS011;18401;49.344;6.240;2024-03-02T04:28:37;1.48;;;1.33;;
31836;SDS011;18401;49.344;6.240;2024-03-02T04:31:02;4.75;;;1.80;;
31836;SDS011;18401;49.344;6.240;2024-03-02T04:33:28;1.83;;;1.30;;
31836;SDS011;18401;49.344;6.240;2024-03-02T04:35:54;2.35;;;1.13;;
31836;SDS011;18401;49.344;6.240;2024-03-02T04:38:19;3.45;;;1.50;;
31836;SDS011;18401;49.344;6.240;2024-03-02T04:40:45;2.80;;;1.30;;
31836;SDS011;18401;49.344;6.240;2024-03-02T04:43:11;1.70;;;1.50;;
31836;SDS011;18401;49.344;6.240;2024-03-02T04:45:40;2.67;;;1.52;;
31836;SDS011;18401;49.344;6.240;2024-03-02T04:48:06;2.38;;;1.58;;
31836;SDS011;18401;49.344;6.240;2024-03-02T04:50:32;4.00;;;1.55;;
31836;SDS011;18401;49.344;6.240;2024-03-02T04:52:58;1.88;;;1.60;;
31836;SDS011;18401;49.344;6.240;2024-03-02T04:55:23;2.95;;;1.42;;
31836;SDS011;18401;49.344;6.240;2024-03-02T04:57:52;1.45;;;1.35;;
31836;SDS011;18401;49.344;6.240;2024-03-02T05:00:19;2.45;;;1.55;;
31836;SDS011;18401;49.344;6.240;2024-03-02T05:02:45;1.65;;;1.40;;
31836;SDS011;18401;49.344;6.240;2024-03-02T05:05:11;3.75;;;1.55;;
31836;SDS011;18401;49.344;6.240;2024-03-02T05:07:37;2.30;;;1.73;;
31836;SDS011;18401;49.344;6.240;2024-03-02T05:10:02;1.88;;;1.50;;
31836;SDS011;18401;49.344;6.240;2024-03-02T05:12:28;3.05;;;1.55;;
31836;SDS011;18401;49.344;6.240;2024-03-02T05:15:09;2.58;;;1.52;;
31836;SDS011;18401;49.344;6.240;2024-03-02T05:17:36;2.85;;;1.70;;
31836;SDS011;18401;49.344;6.240;2024-03-02T05:20:05;6.30;;;2.10;;
31836;SDS011;18401;49.344;6.240;2024-03-02T05:22:35;3.72;;;1.50;;
31836;SDS011;18401;49.344;6.240;2024-03-02T05:25:02;3.78;;;1.30;;
31836;SDS011;18401;49.344;6.240;2024-03-02T05:27:28;1.90;;;1.60;;
31836;SDS011;18401;49.344;6.240;2024-03-02T05:29:53;4.78;;;1.35;;
31836;SDS011;18401;49.344;6.240;2024-03-02T05:32:19;4.72;;;1.33;;
31836;SDS011;18401;49.344;6.240;2024-03-02T05:34:45;5.22;;;1.58;;
31836;SDS011;18401;49.344;6.240;2024-03-02T05:37:10;2.97;;;1.40;;
31836;SDS011;18401;49.344;6.240;2024-03-02T05:39:36;1.52;;;1.20;;
31836;SDS011;18401;49.344;6.240;2024-03-02T05:42:02;9.18;;;1.38;;
31836;SDS011;18401;49.344;6.240;2024-03-02T05:44:28;3.05;;;1.35;;
31836;SDS011;18401;49.344;6.240;2024-03-02T05:46:54;1.73;;;1.33;;
31836;SDS011;18401;49.344;6.240;2024-03-02T05:49:20;2.58;;;1.38;;
31836;SDS011;18401;49.344;6.240;2024-03-02T05:51:46;2.53;;;1.45;;
31836;SDS011;18401;49.344;6.240;2024-03-02T05:54:12;3.42;;;1.30;;
31836;SDS011;18401;49.344;6.240;2024-03-02T05:56:37;3.10;;;1.42;;
31836;SDS011;18401;49.344;6.240;2024-03-02T05:59:03;3.13;;;1.50;;
31836;SDS011;18401;49.344;6.240;2024-03-02T06:01:44;3.65;;;1.77;;
31836;SDS011;18401;49.344;6.240;2024-03-02T06:04:11;3.55;;;1.60;;
31836;SDS011;18401;49.344;6.240;2024-03-02T06:06:37;3.47;;;1.50;;
31836;SDS011;18401;49.344;6.240;2024-03-02T06:09:04;2.63;;;1.60;;
31836;SDS011;18401;49.344;6.240;2024-03-02T06:11:32;3.53;;;1.80;;
31836;SDS011;18401;49.344;6.240;2024-03-02T06:14:01;4.53;;;1.80;;
31836;SDS011;18401;49.344;6.240;2024-03-02T06:16:27;5.38;;;1.67;;
31836;SDS011;18401;49.344;6.240;2024-03-02T06:18:53;3.97;;;1.67;;
31836;SDS011;18401;49.344;6.240;2024-03-02T06:21:19;3.25;;;1.45;;
31836;SDS011;18401;49.344;6.240;2024-03-02T06:23:45;3.17;;;1.30;;
31836;SDS011;18401;49.344;6.240;2024-03-02T06:26:11;2.63;;;1.50;;
31836;SDS011;18401;49.344;6.240;2024-03-02T06:28:37;2.03;;;1.30;;
31836;SDS011;18401;49.344;6.240;2024-03-02T06:31:03;2.13;;;1.50;;
31836;SDS011;18401;49.344;6.240;2024-03-02T06:33:29;1.70;;;1.23;;
31836;SDS011;18401;49.344;6.240;2024-03-02T06:35:55;3.05;;;1.50;;
31836;SDS011;18401;49.344;6.240;2024-03-02T06:38:20;1.75;;;1.02;;
31836;SDS011;18401;49.344;6.240;2024-03-02T06:40:46;5.57;;;1.20;;
31836;SDS011;18401;49.344;6.240;2024-03-02T06:43:12;1.75;;;1.10;;
31836;SDS011;18401;49.344;6.240;2024-03-02T06:45:37;4.07;;;1.20;;
31836;SDS011;18401;49.344;6.240;2024-03-02T06:48:03;2.63;;;1.30;;
31836;SDS011;18401;49.344;6.240;2024-03-02T06:50:29;3.97;;;1.23;;
31836;SDS011;18401;49.344;6.240;2024-03-02T06:52:54;1.05;;;0.90;;
31836;SDS011;18401;49.344;6.240;2024-03-02T06:55:23;2.67;;;1.27;;
31836;SDS011;18401;49.344;6.240;2024-03-02T06:57:49;2.63;;;1.10;;
31836;SDS011;18401;49.344;6.240;2024-03-02T07:00:15;2.03;;;1.30;;
31836;SDS011;18401;49.344;6.240;2024-03-02T07:02:42;1.13;;;1.02;;
31836;SDS011;18401;49.344;6.240;2024-03-02T07:05:09;1.83;;;1.25;;
31836;SDS011;18401;49.344;6.240;2024-03-02T07:07:36;2.90;;;1.38;;
31836;SDS011;18401;49.344;6.240;2024-03-02T07:10:02;2.83;;;1.38;;
31836;SDS011;18401;49.344;6.240;2024-03-02T07:12:29;2.67;;;1.20;;
31836;SDS011;18401;49.344;6.240;2024-03-02T07:14:56;4.35;;;1.30;;
31836;SDS011;18401;49.344;6.240;2024-03-02T07:17:43;5.25;;;1.40;;
31836;SDS011;18401;49.344;6.240;2024-03-02T07:20:09;1.60;;;1.30;;
31836;SDS011;18401;49.344;6.240;2024-03-02T07:22:37;2.15;;;1.20;;
31836;SDS011;18401;49.344;6.240;2024-03-02T07:25:02;2.50;;;1.48;;
31836;SDS011;18401;49.344;6.240;2024-03-02T07:27:28;2.72;;;1.35;;
31836;SDS011;18401;49.344;6.240;2024-03-02T07:29:56;2.30;;;1.35;;
31836;SDS011;18401;49.344;6.240;2024-03-02T07:32:22;1.63;;;1.50;;
31836;SDS011;18401;49.344;6.240;2024-03-02T07:34:48;2.20;;;1.88;;
31836;SDS011;18401;49.344;6.240;2024-03-02T07:37:13;3.30;;;1.80;;
31836;SDS011;18401;49.344;6.240;2024-03-02T07:39:39;4.63;;;2.22;;
31836;SDS011;18401;49.344;6.240;2024-03-02T07:42:05;4.57;;;1.70;;
31836;SDS011;18401;49.344;6.240;2024-03-02T07:44:31;5.15;;;2.10;;
31836;SDS011;18401;49.344;6.240;2024-03-02T07:46:56;2.50;;;1.70;;
31836;SDS011;18401;49.344;6.240;2024-03-02T07:49:22;4.40;;;2.17;;
31836;SDS011;18401;49.344;6.240;2024-03-02T07:51:48;4.65;;;1.45;;
31836;SDS011;18401;49.344;6.240;2024-03-02T07:54:13;2.78;;;1.70;;
31836;SDS011;18401;49.344;6.240;2024-03-02T07:56:39;2.00;;;1.63;;
31836;SDS011;18401;49.344;6.240;2024-03-02T07:59:05;3.70;;;1.20;;
31836;SDS011;18401;49.344;6.240;2024-03-02T08:01:32;3.75;;;1.80;;
31836;SDS011;18401;49.344;6.240;2024-03-02T08:03:58;2.85;;;2.00;;
31836;SDS011;18401;49.344;6.240;2024-03-02T08:06:25;4.57;;;1.73;;
31836;SDS011;18401;49.344;6.240;2024-03-02T08:08:53;3.40;;;2.00;;
31836;SDS011;18401;49.344;6.240;2024-03-02T08:11:22;1.88;;;1.50;;
31836;SDS011;18401;49.344;6.240;2024-03-02T08:13:48;3.65;;;1.55;;
31836;SDS011;18401;49.344;6.240;2024-03-02T08:16:14;5.75;;;1.73;;
31836;SDS011;18401;49.344;6.240;2024-03-02T08:18:41;4.38;;;1.70;;
31836;SDS011;18401;49.344;6.240;2024-03-02T08:21:07;4.35;;;1.50;;
31836;SDS011;18401;49.344;6.240;2024-03-02T08:23:33;3.25;;;1.73;;
31836;SDS011;18401;49.344;6.240;2024-03-02T08:25:59;2.88;;;1.77;;
31836;SDS011;18401;49.344;6.240;2024-03-02T08:28:25;2.47;;;1.98;;
31836;SDS011;18401;49.344;6.240;2024-03-02T08:30:50;4.97;;;1.70;;
31836;SDS011;18401;49.344;6.240;2024-03-02T08:33:16;11.55;;;1.95;;
31836;SDS011;18401;49.344;6.240;2024-03-02T08:35:42;3.15;;;1.80;;
31836;SDS011;18401;49.344;6.240;2024-03-02T08:38:08;3.78;;;1.85;;
31836;SDS011;18401;49.344;6.240;2024-03-02T08:40:33;4.35;;;1.98;;
31836;SDS011;18401;49.344;6.240;2024-03-02T08:42:59;3.97;;;1.85;;
31836;SDS011;18401;49.344;6.240;2024-03-02T08:45:25;2.90;;;1.80;;
31836;SDS011;18401;49.344;6.240;2024-03-02T08:47:51;5.05;;;1.85;;
31836;SDS011;18401;49.344;6.240;2024-03-02T08:50:16;2.55;;;1.73;;
31836;SDS011;18401;49.344;6.240;2024-03-02T08:52:42;4.97;;;1.83;;
31836;SDS011;18401;49.344;6.240;2024-03-02T08:55:08;4.00;;;1.80;;
31836;SDS011;18401;49.344;6.240;2024-03-02T08:57:34;3.13;;;1.50;;
31836;SDS011;18401;49.344;6.240;2024-03-02T09:00:00;2.25;;;1.40;;
31836;SDS011;18401;49.344;6.240;2024-03-02T09:02:26;3.50;;;1.45;;
31836;SDS011;18401;49.344;6.240;2024-03-02T09:04:52;2.10;;;1.35;;
31836;SDS011;18401;49.344;6.240;2024-03-02T09:07:18;2.65;;;1.52;;
31836;SDS011;18401;49.344;6.240;2024-03-02T09:09:43;1.42;;;1.17;;
31836;SDS011;18401;49.344;6.240;2024-03-02T09:12:09;4.22;;;1.38;;
31836;SDS011;18401;49.344;6.240;2024-03-02T09:14:36;4.95;;;1.00;;
31836;SDS011;18401;49.344;6.240;2024-03-02T09:17:02;2.78;;;0.93;;
31836;SDS011;18401;49.344;6.240;2024-03-02T09:19:28;3.22;;;0.70;;
31836;SDS011;18401;49.344;6.240;2024-03-02T09:21:54;2.58;;;0.80;;
31836;SDS011;18401;49.344;6.240;2024-03-02T09:24:21;3.40;;;0.60;;
31836;SDS011;18401;49.344;6.240;2024-03-02T09:26:46;2.15;;;1.00;;
31836;SDS011;18401;49.344;6.240;2024-03-02T09:29:12;5.38;;;1.00;;
31836;SDS011;18401;49.344;6.240;2024-03-02T09:31:41;1.30;;;0.90;;
31836;SDS011;18401;49.344;6.240;2024-03-02T09:34:07;6.22;;;1.00;;
31836;SDS011;18401;49.344;6.240;2024-03-02T09:36:33;1.67;;;1.20;;
31836;SDS011;18401;49.344;6.240;2024-03-02T09:38:59;4.20;;;0.90;;
31836;SDS011;18401;49.344;6.240;2024-03-02T09:41:24;1.30;;;0.85;;
31836;SDS011;18401;49.344;6.240;2024-03-02T09:43:50;2.13;;;1.30;;
31836;SDS011;18401;49.344;6.240;2024-03-02T09:46:16;1.80;;;0.93;;
31836;SDS011;18401;49.344;6.240;2024-03-02T09:48:43;4.05;;;0.88;;
31836;SDS011;18401;49.344;6.240;2024-03-02T09:51:10;1.65;;;1.23;;
31836;SDS011;18401;49.344;6.240;2024-03-02T09:53:36;2.55;;;1.02;;
31836;SDS011;18401;49.344;6.240;2024-03-02T09:56:02;2.70;;;1.00;;
31836;SDS011;18401;49.344;6.240;2024-03-02T09:58:29;1.77;;;1.30;;
31836;SDS011;18401;49.344;6.240;2024-03-02T10:00:55;2.42;;;0.70;;
31836;SDS011;18401;49.344;6.240;2024-03-02T10:03:22;1.67;;;1.17;;
31836;SDS011;18401;49.344;6.240;2024-03-02T10:05:49;1.90;;;1.27;;
31836;SDS011;18401;49.344;6.240;2024-03-02T10:08:15;2.05;;;1.40;;
31836;SDS011;18401;49.344;6.240;2024-03-02T10:10:41;4.72;;;1.52;;
31836;SDS011;18401;49.344;6.240;2024-03-02T10:13:08;0.93;;;0.93;;
31836;SDS011;18401;49.344;6.240;2024-03-02T10:15:39;3.85;;;1.15;;
31836;SDS011;18401;49.344;6.240;2024-03-02T10:18:08;1.23;;;1.17;;
31836;SDS011;18401;49.344;6.240;2024-03-02T10:20:38;3.05;;;1.70;;
31836;SDS011;18401;49.344;6.240;2024-03-02T10:23:12;3.42;;;1.95;;
31836;SDS011;18401;49.344;6.240;2024-03-02T10:25:39;1.30;;;1.20;;
31836;SDS011;18401;49.344;6.240;2024-03-02T10:28:05;4.95;;;1.42;;
31836;SDS011;18401;49.344;6.240;2024-03-02T10:30:31;6.78;;;1.70;;
31836;SDS011;18401;49.344;6.240;2024-03-02T10:32:58;3.22;;;1.65;;
31836;SDS011;18401;49.344;6.240;2024-03-02T10:35:23;4.25;;;1.98;;
31836;SDS011;18401;49.344;6.240;2024-03-02T10:37:50;2.35;;;1.70;;
31836;SDS011;18401;49.344;6.240;2024-03-02T10:40:17;1.55;;;1.45;;
31836;SDS011;18401;49.344;6.240;2024-03-02T10:42:45;2.10;;;1.42;;
31836;SDS011;18401;49.344;6.240;2024-03-02T10:45:13;6.50;;;1.80;;
31836;SDS011;18401;49.344;6.240;2024-03-02T10:47:41;4.28;;;1.00;;
31836;SDS011;18401;49.344;6.240;2024-03-02T10:50:09;1.25;;;1.15;;
31836;SDS011;18401;49.344;6.240;2024-03-02T10:52:35;1.70;;;1.20;;
31836;SDS011;18401;49.344;6.240;2024-03-02T10:55:01;1.75;;;1.13;;
31836;SDS011;18401;49.344;6.240;2024-03-02T10:57:31;2.42;;;1.33;;
31836;SDS011;18401;49.344;6.240;2024-03-02T11:00:02;3.88;;;1.42;;
31836;SDS011;18401;49.344;6.240;2024-03-02T11:02:30;1.92;;;1.40;;
31836;SDS011;18401;49.344;6.240;2024-03-02T11:04:57;1.92;;;1.20;;
31836;SDS011;18401;49.344;6.240;2024-03-02T11:07:25;2.20;;;1.25;;
31836;SDS011;18401;49.344;6.240;2024-03-02T11:09:59;1.15;;;1.10;;
31836;SDS011;18401;49.344;6.240;2024-03-02T11:12:35;4.18;;;1.25;;
31836;SDS011;18401;49.344;6.240;2024-03-02T11:15:09;2.55;;;1.20;;
31836;SDS011;18401;49.344;6.240;2024-03-02T11:17:37;3.85;;;0.93;;
31836;SDS011;18401;49.344;6.240;2024-03-02T11:20:08;3.00;;;1.10;;
31836;SDS011;18401;49.344;6.240;2024-03-02T11:22:35;1.70;;;0.90;;
31836;SDS011;18401;49.344;6.240;2024-03-02T11:25:01;1.20;;;0.95;;
31836;SDS011;18401;49.344;6.240;2024-03-02T11:30:48;0.95;;;0.80;;
31836;SDS011;18401;49.344;6.240;2024-03-02T11:33:08;2.17;;;0.95;;
31836;SDS011;18401;49.344;6.240;2024-03-02T11:35:35;1.95;;;1.02;;
31836;SDS011;18401;49.344;6.240;2024-03-02T11:38:02;1.65;;;0.70;;
31836;SDS011;18401;49.344;6.240;2024-03-02T11:40:29;3.47;;;0.82;;
31836;SDS011;18401;49.344;6.240;2024-03-02T11:42:56;0.60;;;0.60;;
31836;SDS011;18401;49.344;6.240;2024-03-02T11:45:24;5.50;;;0.70;;
31836;SDS011;18401;49.344;6.240;2024-03-02T11:47:51;1.33;;;0.85;;
31836;SDS011;18401;49.344;6.240;2024-03-02T11:50:33;2.83;;;0.63;;
31836;SDS011;18401;49.344;6.240;2024-03-02T11:53:02;1.00;;;0.60;;
31836;SDS011;18401;49.344;6.240;2024-03-02T11:55:36;2.30;;;0.63;;
31836;SDS011;18401;49.344;6.240;2024-03-02T11:58:05;1.58;;;0.80;;
31836;SDS011;18401;49.344;6.240;2024-03-02T12:00:31;2.00;;;0.70;;
31836;SDS011;18401;49.344;6.240;2024-03-02T12:03:01;0.45;;;0.45;;
31836;SDS011;18401;49.344;6.240;2024-03-02T12:05:28;5.07;;;0.50;;
31836;SDS011;18401;49.344;6.240;2024-03-02T12:07:59;4.30;;;0.50;;
31836;SDS011;18401;49.344;6.240;2024-03-02T12:10:26;1.27;;;0.80;;
31836;SDS011;18401;49.344;6.240;2024-03-02T12:12:58;2.13;;;0.60;;
31836;SDS011;18401;49.344;6.240;2024-03-02T12:15:26;0.77;;;0.68;;
31836;SDS011;18401;49.344;6.240;2024-03-02T12:17:54;1.45;;;0.60;;
31836;SDS011;18401;49.344;6.240;2024-03-02T12:20:20;1.73;;;0.90;;
31836;SDS011;18401;49.344;6.240;2024-03-02T12:22:48;0.73;;;0.52;;
31836;SDS011;18401;49.344;6.240;2024-03-02T12:25:20;0.80;;;0.70;;
31836;SDS011;18401;49.344;6.240;2024-03-02T12:27:47;0.52;;;0.52;;
31836;SDS011;18401;49.344;6.240;2024-03-02T12:30:18;0.50;;;0.50;;
31836;SDS011;18401;49.344;6.240;2024-03-02T12:32:45;1.17;;;0.60;;
31836;SDS011;18401;49.344;6.240;2024-03-02T12:35:11;2.10;;;0.70;;
31836;SDS011;18401;49.344;6.240;2024-03-02T12:37:44;3.30;;;0.63;;
31836;SDS011;18401;49.344;6.240;2024-03-02T12:40:10;2.33;;;0.82;;
31836;SDS011;18401;49.344;6.240;2024-03-02T12:42:37;0.40;;;0.40;;
31836;SDS011;18401;49.344;6.240;2024-03-02T12:45:03;0.80;;;0.70;;
31836;SDS011;18401;49.344;6.240;2024-03-02T12:47:29;1.05;;;0.68;;
31836;SDS011;18401;49.344;6.240;2024-03-02T12:49:55;1.10;;;0.63;;
31836;SDS011;18401;49.344;6.240;2024-03-02T12:52:21;1.10;;;0.75;;
31836;SDS011;18401;49.344;6.240;2024-03-02T12:54:47;0.90;;;0.65;;
31836;SDS011;18401;49.344;6.240;2024-03-02T12:57:20;0.50;;;0.50;;
31836;SDS011;18401;49.344;6.240;2024-03-02T12:59:46;1.40;;;0.85;;
31836;SDS011;18401;49.344;6.240;2024-03-02T13:02:18;2.22;;;0.60;;
31836;SDS011;18401;49.344;6.240;2024-03-02T13:04:51;1.23;;;0.68;;
31836;SDS011;18401;49.344;6.240;2024-03-02T13:07:19;0.75;;;0.70;;
31836;SDS011;18401;49.344;6.240;2024-03-02T13:09:47;1.52;;;0.60;;
31836;SDS011;18401;49.344;6.240;2024-03-02T13:12:14;1.05;;;1.05;;
31836;SDS011;18401;49.344;6.240;2024-03-02T13:14:41;0.57;;;0.57;;
31836;SDS011;18401;49.344;6.240;2024-03-02T13:17:08;1.38;;;0.70;;
31836;SDS011;18401;49.344;6.240;2024-03-02T13:19:34;1.10;;;0.63;;
31836;SDS011;18401;49.344;6.240;2024-03-02T13:22:00;0.75;;;0.63;;
31836;SDS011;18401;49.344;6.240;2024-03-02T13:24:28;0.88;;;0.60;;
31836;SDS011;18401;49.344;6.240;2024-03-02T13:26:55;1.58;;;0.60;;
31836;SDS011;18401;49.344;6.240;2024-03-02T13:29:23;6.05;;;0.63;;
31836;SDS011;18401;49.344;6.240;2024-03-02T13:31:49;0.95;;;0.50;;
31836;SDS011;18401;49.344;6.240;2024-03-02T13:34:15;1.25;;;0.40;;
31836;SDS011;18401;49.344;6.240;2024-03-02T13:36:41;1.55;;;0.80;;
31836;SDS011;18401;49.344;6.240;2024-03-02T13:39:06;1.25;;;0.60;;
31836;SDS011;18401;49.344;6.240;2024-03-02T13:41:35;1.73;;;0.75;;
31836;SDS011;18401;49.344;6.240;2024-03-02T13:44:01;0.35;;;0.35;;
31836;SDS011;18401;49.344;6.240;2024-03-02T13:46:27;1.33;;;0.52;;
31836;SDS011;18401;49.344;6.240;2024-03-02T13:48:53;0.93;;;0.50;;
31836;SDS011;18401;49.344;6.240;2024-03-02T13:51:19;0.50;;;0.50;;
31836;SDS011;18401;49.344;6.240;2024-03-02T13:53:45;1.17;;;0.60;;
31836;SDS011;18401;49.344;6.240;2024-03-02T13:56:11;0.57;;;0.40;;
31836;SDS011;18401;49.344;6.240;2024-03-02T13:58:37;0.93;;;0.70;;
31836;SDS011;18401;49.344;6.240;2024-03-02T14:01:02;3.40;;;0.55;;
31836;SDS011;18401;49.344;6.240;2024-03-02T14:03:30;0.77;;;0.50;;
31836;SDS011;18401;49.344;6.240;2024-03-02T14:05:56;0.65;;;0.60;;
31836;SDS011;18401;49.344;6.240;2024-03-02T14:08:21;0.40;;;0.40;;
31836;SDS011;18401;49.344;6.240;2024-03-02T14:10:48;0.70;;;0.60;;
31836;SDS011;18401;49.344;6.240;2024-03-02T14:13:13;0.65;;;0.40;;
31836;SDS011;18401;49.344;6.240;2024-03-02T14:15:40;1.08;;;0.55;;
31836;SDS011;18401;49.344;6.240;2024-03-02T14:18:06;0.60;;;0.50;;
31836;SDS011;18401;49.344;6.240;2024-03-02T14:20:36;0.60;;;0.60;;
31836;SDS011;18401;49.344;6.240;2024-03-02T14:23:02;1.48;;;0.60;;
31836;SDS011;18401;49.344;6.240;2024-03-02T14:25:29;1.00;;;0.60;;
31836;SDS011;18401;49.344;6.240;2024-03-02T14:27:58;0.77;;;0.60;;
31836;SDS011;18401;49.344;6.240;2024-03-02T14:30:24;1.77;;;0.80;;
31836;SDS011;18401;49.344;6.240;2024-03-02T14:32:49;0.70;;;0.40;;
31836;SDS011;18401;49.344;6.240;2024-03-02T14:35:16;0.82;;;0.52;;
31836;SDS011;18401;49.344;6.240;2024-03-02T14:37:42;0.40;;;0.32;;
31836;SDS011;18401;49.344;6.240;2024-03-02T14:40:08;1.00;;;0.70;;
31836;SDS011;18401;49.344;6.240;2024-03-02T14:42:34;0.50;;;0.50;;
31836;SDS011;18401;49.344;6.240;2024-03-02T14:45:00;1.63;;;0.68;;
31836;SDS011;18401;49.344;6.240;2024-03-02T14:47:29;0.93;;;0.60;;
31836;SDS011;18401;49.344;6.240;2024-03-02T14:49:54;0.90;;;0.60;;
31836;SDS011;18401;49.344;6.240;2024-03-02T14:52:20;0.70;;;0.60;;
31836;SDS011;18401;49.344;6.240;2024-03-02T14:54:46;2.38;;;0.50;;
31836;SDS011;18401;49.344;6.240;2024-03-02T14:57:12;1.20;;;0.70;;
31836;SDS011;18401;49.344;6.240;2024-03-02T14:59:38;3.50;;;1.50;;